Terminal Aerodrome Forecast
Issued by NWS

Home | Current Version | Previous Version | Text Only | Print | Product List | Glossary On
Versions: 1 2 3 4 5 6 7 8 9 10 11 12 13 14 15 16 17 18 19 20 21 22 23 24 25 26
453
FTUS43 KFGF 250520
TAFDVL
TAF
KDVL 250520Z 2506/2606 VRB05KT P6SM SKC
     FM251100 22010KT P6SM SKC
     FM251500 23014G22KT P6SM SKC
     FM251800 23018G28KT P6SM SCT250
     FM260000 24013G18KT P6SM BKN200
     FM260300 36014G22KT P6SM BKN200=

USA.gov is the U.S. government's official web portal to all federal, state and local government web resources and services.